sensor_id;sensor_type;location;lat;lon;timestamp;temperature;humidity
9951;DHT22;24074;49.254;6.702;2024-03-02T00:01:10;6.60;99.90
9951;DHT22;24074;49.254;6.702;2024-03-02T00:03:39;6.50;99.90
9951;DHT22;24074;49.254;6.702;2024-03-02T00:06:06;6.40;99.90
9951;DHT22;24074;49.254;6.702;2024-03-02T00:08:32;6.50;99.90
9951;DHT22;24074;49.254;6.702;2024-03-02T00:10:59;6.40;99.90
9951;DHT22;24074;49.254;6.702;2024-03-02T00:13:26;6.40;99.90
9951;DHT22;24074;49.254;6.702;2024-03-02T00:15:56;6.30;99.90
9951;DHT22;24074;49.254;6.702;2024-03-02T00:18:26;6.40;99.90
9951;DHT22;24074;49.254;6.702;2024-03-02T00:20:55;6.20;99.90
9951;DHT22;24074;49.254;6.702;2024-03-02T00:23:22;6.20;99.90
9951;DHT22;24074;49.254;6.702;2024-03-02T00:25:52;6.20;99.90
9951;DHT22;24074;49.254;6.702;2024-03-02T00:28:26;6.10;99.90
9951;DHT22;24074;49.254;6.702;2024-03-02T00:30:59;6.00;99.90
9951;DHT22;24074;49.254;6.702;2024-03-02T00:33:30;5.90;99.90
9951;DHT22;24074;49.254;6.702;2024-03-02T00:35:56;5.80;99.90
9951;DHT22;24074;49.254;6.702;2024-03-02T00:38:22;5.80;99.90
9951;DHT22;24074;49.254;6.702;2024-03-02T00:40:48;5.70;99.90
9951;DHT22;24074;49.254;6.702;2024-03-02T00:45:55;5.60;99.90
9951;DHT22;24074;49.254;6.702;2024-03-02T00:48:20;5.60;99.90
9951;DHT22;24074;49.254;6.702;2024-03-02T00:50:46;5.70;99.90
9951;DHT22;24074;49.254;6.702;2024-03-02T00:53:15;5.70;99.90
9951;DHT22;24074;49.254;6.702;2024-03-02T00:55:42;5.70;99.90
9951;DHT22;24074;49.254;6.702;2024-03-02T00:58:09;5.70;99.90
9951;DHT22;24074;49.254;6.702;2024-03-02T01:00:35;5.70;99.90
9951;DHT22;24074;49.254;6.702;2024-03-02T01:03:00;5.70;99.90
9951;DHT22;24074;49.254;6.702;2024-03-02T01:05:26;5.70;99.90
9951;DHT22;24074;49.254;6.702;2024-03-02T01:07:51;5.80;99.90
9951;DHT22;24074;49.254;6.702;2024-03-02T01:10:17;5.70;99.90
9951;DHT22;24074;49.254;6.702;2024-03-02T01:12:42;5.60;99.90
9951;DHT22;24074;49.254;6.702;2024-03-02T01:15:08;5.70;99.90
9951;DHT22;24074;49.254;6.702;2024-03-02T01:17:34;5.70;99.90
9951;DHT22;24074;49.254;6.702;2024-03-02T01:19:59;5.80;99.90
9951;DHT22;24074;49.254;6.702;2024-03-02T01:22:25;6.00;99.90
9951;DHT22;24074;49.254;6.702;2024-03-02T01:24:51;6.10;99.90
9951;DHT22;24074;49.254;6.702;2024-03-02T01:27:16;6.10;99.90
9951;DHT22;24074;49.254;6.702;2024-03-02T01:29:42;6.20;99.90
9951;DHT22;24074;49.254;6.702;2024-03-02T01:32:07;6.30;99.90
9951;DHT22;24074;49.254;6.702;2024-03-02T01:34:33;6.20;99.90
9951;DHT22;24074;49.254;6.702;2024-03-02T01:36:59;6.10;99.90
9951;DHT22;24074;49.254;6.702;2024-03-02T01:39:24;6.00;99.90
9951;DHT22;24074;49.254;6.702;2024-03-02T01:41:50;5.90;99.90
9951;DHT22;24074;49.254;6.702;2024-03-02T01:44:15;5.90;99.90
9951;DHT22;24074;49.254;6.702;2024-03-02T01:46:41;5.90;99.90
9951;DHT22;24074;49.254;6.702;2024-03-02T01:49:06;5.90;99.90
9951;DHT22;24074;49.254;6.702;2024-03-02T01:51:32;5.90;99.90
9951;DHT22;24074;49.254;6.702;2024-03-02T01:53:57;5.80;99.90
9951;DHT22;24074;49.254;6.702;2024-03-02T01:56:23;5.80;99.90
9951;DHT22;24074;49.254;6.702;2024-03-02T01:58:49;5.80;99.90
9951;DHT22;24074;49.254;6.702;2024-03-02T02:01:15;5.80;99.90
9951;DHT22;24074;49.254;6.702;2024-03-02T02:03:43;5.90;99.90
9951;DHT22;24074;49.254;6.702;2024-03-02T02:06:09;5.90;99.90
9951;DHT22;24074;49.254;6.702;2024-03-02T02:08:37;5.90;99.90
9951;DHT22;24074;49.254;6.702;2024-03-02T02:11:02;5.90;99.90
9951;DHT22;24074;49.254;6.702;2024-03-02T02:13:28;6.00;99.90
9951;DHT22;24074;49.254;6.702;2024-03-02T02:15:54;6.20;99.90
9951;DHT22;24074;49.254;6.702;2024-03-02T02:18:19;6.30;99.90
9951;DHT22;24074;49.254;6.702;2024-03-02T02:20:45;6.50;99.90
9951;DHT22;24074;49.254;6.702;2024-03-02T02:23:10;6.60;99.90
9951;DHT22;24074;49.254;6.702;2024-03-02T02:25:38;6.70;99.90
9951;DHT22;24074;49.254;6.702;2024-03-02T02:28:04;6.80;99.90
9951;DHT22;24074;49.254;6.702;2024-03-02T02:30:31;6.90;99.90
9951;DHT22;24074;49.254;6.702;2024-03-02T02:32:57;6.90;99.90
9951;DHT22;24074;49.254;6.702;2024-03-02T02:35:23;6.90;99.90
9951;DHT22;24074;49.254;6.702;2024-03-02T02:37:54;6.90;99.90
9951;DHT22;24074;49.254;6.702;2024-03-02T02:40:20;6.80;99.90
9951;DHT22;24074;49.254;6.702;2024-03-02T02:42:46;6.90;99.90
9951;DHT22;24074;49.254;6.702;2024-03-02T02:45:12;6.90;99.90
9951;DHT22;24074;49.254;6.702;2024-03-02T02:47:43;6.80;99.90
9951;DHT22;24074;49.254;6.702;2024-03-02T02:50:11;6.90;99.90
9951;DHT22;24074;49.254;6.702;2024-03-02T02:52:40;7.00;99.90
9951;DHT22;24074;49.254;6.702;2024-03-02T02:55:07;7.00;99.90
9951;DHT22;24074;49.254;6.702;2024-03-02T02:57:34;7.10;99.90
9951;DHT22;24074;49.254;6.702;2024-03-02T03:00:09;7.10;99.90
9951;DHT22;24074;49.254;6.702;2024-03-02T03:02:41;7.20;99.90
9951;DHT22;24074;49.254;6.702;2024-03-02T03:05:11;7.10;99.90
9951;DHT22;24074;49.254;6.702;2024-03-02T03:07:39;7.20;99.90
9951;DHT22;24074;49.254;6.702;2024-03-02T03:10:05;7.20;99.90
9951;DHT22;24074;49.254;6.702;2024-03-02T03:12:32;7.20;99.90
9951;DHT22;24074;49.254;6.702;2024-03-02T03:14:58;7.30;99.90
9951;DHT22;24074;49.254;6.702;2024-03-02T03:17:24;7.30;99.90
9951;DHT22;24074;49.254;6.702;2024-03-02T03:19:50;7.30;99.90
9951;DHT22;24074;49.254;6.702;2024-03-02T03:22:16;7.30;99.90
9951;DHT22;24074;49.254;6.702;2024-03-02T03:24:42;7.40;99.90
9951;DHT22;24074;49.254;6.702;2024-03-02T03:27:07;7.40;99.90
9951;DHT22;24074;49.254;6.702;2024-03-02T03:29:33;7.40;99.90
9951;DHT22;24074;49.254;6.702;2024-03-02T03:31:58;7.40;99.90
9951;DHT22;24074;49.254;6.702;2024-03-02T03:34:24;7.40;99.90
9951;DHT22;24074;49.254;6.702;2024-03-02T03:36:49;7.40;99.90
9951;DHT22;24074;49.254;6.702;2024-03-02T03:39:15;7.40;99.90
9951;DHT22;24074;49.254;6.702;2024-03-02T03:41:41;7.40;99.90
9951;DHT22;24074;49.254;6.702;2024-03-02T03:44:06;7.40;99.90
9951;DHT22;24074;49.254;6.702;2024-03-02T03:46:32;7.40;99.90
9951;DHT22;24074;49.254;6.702;2024-03-02T03:48:57;7.50;99.90
9951;DHT22;24074;49.254;6.702;2024-03-02T03:51:23;7.50;99.90
9951;DHT22;24074;49.254;6.702;2024-03-02T03:53:49;7.50;99.90
9951;DHT22;24074;49.254;6.702;2024-03-02T03:56:14;7.50;99.90
9951;DHT22;24074;49.254;6.702;2024-03-02T03:58:40;7.60;99.90
9951;DHT22;24074;49.254;6.702;2024-03-02T04:01:05;7.60;99.90
9951;DHT22;24074;49.254;6.702;2024-03-02T04:03:31;7.60;99.90
9951;DHT22;24074;49.254;6.702;2024-03-02T04:05:56;7.60;99.90
9951;DHT22;24074;49.254;6.702;2024-03-02T04:08:22;7.60;99.90
9951;DHT22;24074;49.254;6.702;2024-03-02T04:10:48;7.60;99.90
9951;DHT22;24074;49.254;6.702;2024-03-02T04:13:13;7.60;99.90
9951;DHT22;24074;49.254;6.702;2024-03-02T04:15:39;7.60;99.90
9951;DHT22;24074;49.254;6.702;2024-03-02T04:18:06;7.60;99.90
9951;DHT22;24074;49.254;6.702;2024-03-02T04:20:31;7.60;99.90
9951;DHT22;24074;49.254;6.702;2024-03-02T04:22:57;7.60;99.90
9951;DHT22;24074;49.254;6.702;2024-03-02T04:25:22;7.50;99.90
9951;DHT22;24074;49.254;6.702;2024-03-02T04:27:48;7.50;99.90
9951;DHT22;24074;49.254;6.702;2024-03-02T04:30:14;7.60;99.90
9951;DHT22;24074;49.254;6.702;2024-03-02T04:32:39;7.50;99.90
9951;DHT22;24074;49.254;6.702;2024-03-02T04:35:05;7.50;99.90
9951;DHT22;24074;49.254;6.702;2024-03-02T04:37:34;7.50;99.90
9951;DHT22;24074;49.254;6.702;2024-03-02T04:40:00;7.50;99.90
9951;DHT22;24074;49.254;6.702;2024-03-02T04:42:26;7.50;99.90
9951;DHT22;24074;49.254;6.702;2024-03-02T04:44:51;7.50;99.90
9951;DHT22;24074;49.254;6.702;2024-03-02T04:47:17;7.50;99.90
9951;DHT22;24074;49.254;6.702;2024-03-02T04:49:42;7.50;99.90
9951;DHT22;24074;49.254;6.702;2024-03-02T04:52:08;7.50;99.90
9951;DHT22;24074;49.254;6.702;2024-03-02T04:54:34;7.40;99.90
9951;DHT22;24074;49.254;6.702;2024-03-02T04:57:20;7.40;99.90
9951;DHT22;24074;49.254;6.702;2024-03-02T04:59:45;7.40;99.90
9951;DHT22;24074;49.254;6.702;2024-03-02T05:02:11;7.40;99.90
9951;DHT22;24074;49.254;6.702;2024-03-02T05:04:39;7.40;99.90
9951;DHT22;24074;49.254;6.702;2024-03-02T05:07:05;7.40;99.90
9951;DHT22;24074;49.254;6.702;2024-03-02T05:09:31;7.40;99.90
9951;DHT22;24074;49.254;6.702;2024-03-02T05:11:57;7.40;99.90
9951;DHT22;24074;49.254;6.702;2024-03-02T05:14:28;7.40;99.90
9951;DHT22;24074;49.254;6.702;2024-03-02T05:16:54;7.40;99.90
9951;DHT22;24074;49.254;6.702;2024-03-02T05:19:20;7.40;99.90
9951;DHT22;24074;49.254;6.702;2024-03-02T05:21:45;7.30;99.90
9951;DHT22;24074;49.254;6.702;2024-03-02T05:24:11;7.30;99.90
9951;DHT22;24074;49.254;6.702;2024-03-02T05:26:37;7.40;99.90
9951;DHT22;24074;49.254;6.702;2024-03-02T05:29:02;7.40;99.90
9951;DHT22;24074;49.254;6.702;2024-03-02T05:31:28;7.40;99.90
9951;DHT22;24074;49.254;6.702;2024-03-02T05:33:54;7.40;99.90
9951;DHT22;24074;49.254;6.702;2024-03-02T05:36:19;7.40;99.90
9951;DHT22;24074;49.254;6.702;2024-03-02T05:38:46;7.40;99.90
9951;DHT22;24074;49.254;6.702;2024-03-02T05:41:11;7.40;99.90
9951;DHT22;24074;49.254;6.702;2024-03-02T05:43:37;7.50;99.90
9951;DHT22;24074;49.254;6.702;2024-03-02T05:46:03;7.50;99.90
9951;DHT22;24074;49.254;6.702;2024-03-02T05:48:28;7.50;99.90
9951;DHT22;24074;49.254;6.702;2024-03-02T05:50:54;7.50;99.90
9951;DHT22;24074;49.254;6.702;2024-03-02T05:53:19;7.40;99.90
9951;DHT22;24074;49.254;6.702;2024-03-02T05:55:45;7.40;99.90
9951;DHT22;24074;49.254;6.702;2024-03-02T05:58:10;7.40;99.90
9951;DHT22;24074;49.254;6.702;2024-03-02T06:00:55;7.40;99.90
9951;DHT22;24074;49.254;6.702;2024-03-02T06:03:20;7.50;99.90
9951;DHT22;24074;49.254;6.702;2024-03-02T06:05:46;7.50;99.90
9951;DHT22;24074;49.254;6.702;2024-03-02T06:08:14;7.40;99.90
9951;DHT22;24074;49.254;6.702;2024-03-02T06:10:40;7.40;99.90
9951;DHT22;24074;49.254;6.702;2024-03-02T06:13:05;7.40;99.90
9951;DHT22;24074;49.254;6.702;2024-03-02T06:15:34;7.50;99.90
9951;DHT22;24074;49.254;6.702;2024-03-02T06:18:01;7.60;99.90
9951;DHT22;24074;49.254;6.702;2024-03-02T06:20:26;7.60;99.90
9951;DHT22;24074;49.254;6.702;2024-03-02T06:22:52;7.50;99.90
9951;DHT22;24074;49.254;6.702;2024-03-02T06:25:18;7.60;99.90
9951;DHT22;24074;49.254;6.702;2024-03-02T06:27:43;7.60;99.90
9951;DHT22;24074;49.254;6.702;2024-03-02T06:30:09;7.60;99.90
9951;DHT22;24074;49.254;6.702;2024-03-02T06:32:35;7.60;99.90
9951;DHT22;24074;49.254;6.702;2024-03-02T06:35:00;7.60;99.90
9951;DHT22;24074;49.254;6.702;2024-03-02T06:37:26;7.60;99.90
9951;DHT22;24074;49.254;6.702;2024-03-02T06:39:52;7.60;99.90
9951;DHT22;24074;49.254;6.702;2024-03-02T06:42:17;7.60;99.90
9951;DHT22;24074;49.254;6.702;2024-03-02T06:44:43;7.60;99.90
9951;DHT22;24074;49.254;6.702;2024-03-02T06:47:08;7.60;99.90
9951;DHT22;24074;49.254;6.702;2024-03-02T06:49:34;7.60;99.90
9951;DHT22;24074;49.254;6.702;2024-03-02T06:52:00;7.50;99.90
9951;DHT22;24074;49.254;6.702;2024-03-02T06:54:26;7.60;99.90
9951;DHT22;24074;49.254;6.702;2024-03-02T06:56:51;7.70;99.90
9951;DHT22;24074;49.254;6.702;2024-03-02T06:59:20;7.70;99.90
9951;DHT22;24074;49.254;6.702;2024-03-02T07:01:46;7.70;99.90
9951;DHT22;24074;49.254;6.702;2024-03-02T07:04:11;7.70;99.90
9951;DHT22;24074;49.254;6.702;2024-03-02T07:06:37;7.70;99.90
9951;DHT22;24074;49.254;6.702;2024-03-02T07:09:02;7.70;99.90
9951;DHT22;24074;49.254;6.702;2024-03-02T07:11:28;7.70;99.90
9951;DHT22;24074;49.254;6.702;2024-03-02T07:13:53;7.80;99.90
9951;DHT22;24074;49.254;6.702;2024-03-02T07:16:19;7.80;99.90
9951;DHT22;24074;49.254;6.702;2024-03-02T07:18:54;7.90;99.90
9951;DHT22;24074;49.254;6.702;2024-03-02T07:21:21;8.00;99.90
9951;DHT22;24074;49.254;6.702;2024-03-02T07:23:47;8.10;99.90
9951;DHT22;24074;49.254;6.702;2024-03-02T07:26:13;8.10;99.90
9951;DHT22;24074;49.254;6.702;2024-03-02T07:28:43;8.00;99.90
9951;DHT22;24074;49.254;6.702;2024-03-02T07:31:09;8.20;99.90
9951;DHT22;24074;49.254;6.702;2024-03-02T07:33:35;8.20;99.90
9951;DHT22;24074;49.254;6.702;2024-03-02T07:36:01;8.40;99.90
9951;DHT22;24074;49.254;6.702;2024-03-02T07:38:28;8.50;99.90
9951;DHT22;24074;49.254;6.702;2024-03-02T07:40:54;8.70;99.90
9951;DHT22;24074;49.254;6.702;2024-03-02T07:43:20;8.70;99.90
9951;DHT22;24074;49.254;6.702;2024-03-02T07:45:47;8.90;99.90
9951;DHT22;24074;49.254;6.702;2024-03-02T07:48:13;9.10;99.90
9951;DHT22;24074;49.254;6.702;2024-03-02T07:50:38;9.10;99.90
9951;DHT22;24074;49.254;6.702;2024-03-02T07:53:05;8.90;99.90
9951;DHT22;24074;49.254;6.702;2024-03-02T07:55:30;8.70;99.90
9951;DHT22;24074;49.254;6.702;2024-03-02T07:57:56;8.80;99.90
9951;DHT22;24074;49.254;6.702;2024-03-02T08:00:23;8.90;99.90
9951;DHT22;24074;49.254;6.702;2024-03-02T08:02:50;8.80;99.90
9951;DHT22;24074;49.254;6.702;2024-03-02T08:05:16;8.90;99.90
9951;DHT22;24074;49.254;6.702;2024-03-02T08:07:44;8.90;99.90
9951;DHT22;24074;49.254;6.702;2024-03-02T08:10:10;8.90;99.90
9951;DHT22;24074;49.254;6.702;2024-03-02T08:12:36;8.90;99.90
9951;DHT22;24074;49.254;6.702;2024-03-02T08:15:01;8.90;99.90
9951;DHT22;24074;49.254;6.702;2024-03-02T08:17:27;9.00;99.90
9951;DHT22;24074;49.254;6.702;2024-03-02T08:19:53;9.00;99.90
9951;DHT22;24074;49.254;6.702;2024-03-02T08:22:19;9.10;99.90
9951;DHT22;24074;49.254;6.702;2024-03-02T08:24:45;9.00;99.90
9951;DHT22;24074;49.254;6.702;2024-03-02T08:27:11;9.00;99.90
9951;DHT22;24074;49.254;6.702;2024-03-02T08:29:37;9.20;99.90
9951;DHT22;24074;49.254;6.702;2024-03-02T08:32:03;9.10;99.90
9951;DHT22;24074;49.254;6.702;2024-03-02T08:34:31;9.30;99.90
9951;DHT22;24074;49.254;6.702;2024-03-02T08:36:57;9.30;99.90
9951;DHT22;24074;49.254;6.702;2024-03-02T08:39:26;9.40;99.90
9951;DHT22;24074;49.254;6.702;2024-03-02T08:41:52;9.40;99.90
9951;DHT22;24074;49.254;6.702;2024-03-02T08:44:18;9.20;99.90
9951;DHT22;24074;49.254;6.702;2024-03-02T08:46:44;9.30;99.90
9951;DHT22;24074;49.254;6.702;2024-03-02T08:49:10;9.30;99.90
9951;DHT22;24074;49.254;6.702;2024-03-02T08:51:35;9.40;99.90
9951;DHT22;24074;49.254;6.702;2024-03-02T08:54:01;9.50;99.90
9951;DHT22;24074;49.254;6.702;2024-03-02T08:56:27;9.60;99.90
9951;DHT22;24074;49.254;6.702;2024-03-02T08:58:52;10.00;99.90
9951;DHT22;24074;49.254;6.702;2024-03-02T09:01:18;10.50;99.90
9951;DHT22;24074;49.254;6.702;2024-03-02T09:03:45;10.90;99.90
9951;DHT22;24074;49.254;6.702;2024-03-02T09:06:11;11.40;99.90
9951;DHT22;24074;49.254;6.702;2024-03-02T09:08:37;12.60;99.90
9951;DHT22;24074;49.254;6.702;2024-03-02T09:11:04;13.70;99.90
9951;DHT22;24074;49.254;6.702;2024-03-02T09:13:30;16.00;99.90
9951;DHT22;24074;49.254;6.702;2024-03-02T09:15:56;17.00;99.90
9951;DHT22;24074;49.254;6.702;2024-03-02T09:18:22;17.30;99.90
9951;DHT22;24074;49.254;6.702;2024-03-02T09:20:50;18.00;99.90
9951;DHT22;24074;49.254;6.702;2024-03-02T09:23:18;17.00;99.80
9951;DHT22;24074;49.254;6.702;2024-03-02T09:25:44;16.20;99.90
9951;DHT22;24074;49.254;6.702;2024-03-02T09:28:10;16.20;99.90
9951;DHT22;24074;49.254;6.702;2024-03-02T09:30:35;17.20;99.90
9951;DHT22;24074;49.254;6.702;2024-03-02T09:33:01;17.20;99.90
9951;DHT22;24074;49.254;6.702;2024-03-02T09:35:27;17.90;99.30
9951;DHT22;24074;49.254;6.702;2024-03-02T09:37:52;19.10;97.00
9951;DHT22;24074;49.254;6.702;2024-03-02T09:40:21;20.70;94.10
9951;DHT22;24074;49.254;6.702;2024-03-02T09:42:47;20.50;91.80
9951;DHT22;24074;49.254;6.702;2024-03-02T09:45:24;20.90;88.50
9951;DHT22;24074;49.254;6.702;2024-03-02T09:47:50;20.80;83.30
9951;DHT22;24074;49.254;6.702;2024-03-02T09:50:16;20.20;84.40
9951;DHT22;24074;49.254;6.702;2024-03-02T09:52:43;20.00;84.40
9951;DHT22;24074;49.254;6.702;2024-03-02T09:55:09;19.80;82.00
9951;DHT22;24074;49.254;6.702;2024-03-02T09:57:35;19.10;81.70
9951;DHT22;24074;49.254;6.702;2024-03-02T10:00:00;19.30;81.10
9951;DHT22;24074;49.254;6.702;2024-03-02T10:02:26;18.90;82.20
9951;DHT22;24074;49.254;6.702;2024-03-02T10:04:52;19.70;80.80
9951;DHT22;24074;49.254;6.702;2024-03-02T10:07:18;19.90;77.90
9951;DHT22;24074;49.254;6.702;2024-03-02T10:09:45;19.00;78.20
9951;DHT22;24074;49.254;6.702;2024-03-02T10:12:12;18.00;81.50
9951;DHT22;24074;49.254;6.702;2024-03-02T10:14:38;17.40;81.30
9951;DHT22;24074;49.254;6.702;2024-03-02T10:17:09;16.70;83.70
9951;DHT22;24074;49.254;6.702;2024-03-02T10:19:35;16.50;84.90
9951;DHT22;24074;49.254;6.702;2024-03-02T10:22:03;16.10;86.20
9951;DHT22;24074;49.254;6.702;2024-03-02T10:24:42;15.50;86.50
9951;DHT22;24074;49.254;6.702;2024-03-02T10:29:41;14.50;90.20
9951;DHT22;24074;49.254;6.702;2024-03-02T10:32:11;14.90;90.50
9951;DHT22;24074;49.254;6.702;2024-03-02T10:34:37;14.90;90.70
9951;DHT22;24074;49.254;6.702;2024-03-02T10:37:03;15.40;90.40
9951;DHT22;24074;49.254;6.702;2024-03-02T10:39:29;16.70;90.30
9951;DHT22;24074;49.254;6.702;2024-03-02T10:41:57;17.40;88.20
9951;DHT22;24074;49.254;6.702;2024-03-02T10:44:23;17.80;87.00
9951;DHT22;24074;49.254;6.702;2024-03-02T10:46:51;19.10;85.20
9951;DHT22;24074;49.254;6.702;2024-03-02T10:49:18;20.00;82.20
9951;DHT22;24074;49.254;6.702;2024-03-02T10:51:44;19.20;80.60
9951;DHT22;24074;49.254;6.702;2024-03-02T10:54:10;19.90;81.80
9951;DHT22;24074;49.254;6.702;2024-03-02T10:56:40;20.30;78.30
9951;DHT22;24074;49.254;6.702;2024-03-02T10:59:34;20.60;77.70
9951;DHT22;24074;49.254;6.702;2024-03-02T11:02:01;21.00;78.10
9951;DHT22;24074;49.254;6.702;2024-03-02T11:04:27;23.20;73.10
9951;DHT22;24074;49.254;6.702;2024-03-02T11:09:29;24.50;65.10
9951;DHT22;24074;49.254;6.702;2024-03-02T11:12:18;24.60;64.00
9951;DHT22;24074;49.254;6.702;2024-03-02T11:14:44;24.80;61.30
9951;DHT22;24074;49.254;6.702;2024-03-02T11:17:10;26.10;59.00
9951;DHT22;24074;49.254;6.702;2024-03-02T11:19:38;26.10;54.20
9951;DHT22;24074;49.254;6.702;2024-03-02T11:22:05;25.70;53.60
9951;DHT22;24074;49.254;6.702;2024-03-02T11:24:31;26.50;52.80
9951;DHT22;24074;49.254;6.702;2024-03-02T11:27:04;26.70;49.20
9951;DHT22;24074;49.254;6.702;2024-03-02T11:32:03;24.90;48.90
9951;DHT22;24074;49.254;6.702;2024-03-02T11:34:34;22.20;50.90
9951;DHT22;24074;49.254;6.702;2024-03-02T11:37:01;21.60;53.50
9951;DHT22;24074;49.254;6.702;2024-03-02T11:39:30;21.40;54.50
9951;DHT22;24074;49.254;6.702;2024-03-02T11:41:57;20.50;55.40
9951;DHT22;24074;49.254;6.702;2024-03-02T11:44:27;18.90;57.50
9951;DHT22;24074;49.254;6.702;2024-03-02T11:46:58;18.10;58.90
9951;DHT22;24074;49.254;6.702;2024-03-02T11:52:03;16.60;66.30
9951;DHT22;24074;49.254;6.702;2024-03-02T11:54:32;16.40;67.80
9951;DHT22;24074;49.254;6.702;2024-03-02T11:57:02;16.50;69.50
9951;DHT22;24074;49.254;6.702;2024-03-02T11:59:29;16.50;70.20
9951;DHT22;24074;49.254;6.702;2024-03-02T12:01:55;16.60;71.60
9951;DHT22;24074;49.254;6.702;2024-03-02T12:04:21;16.50;71.50
9951;DHT22;24074;49.254;6.702;2024-03-02T12:06:53;16.10;72.60
9951;DHT22;24074;49.254;6.702;2024-03-02T12:09:20;15.80;72.10
9951;DHT22;24074;49.254;6.702;2024-03-02T12:11:46;15.20;74.70
9951;DHT22;24074;49.254;6.702;2024-03-02T12:14:12;14.90;76.10
9951;DHT22;24074;49.254;6.702;2024-03-02T12:16:44;14.80;78.30
9951;DHT22;24074;49.254;6.702;2024-03-02T12:19:10;14.90;80.00
9951;DHT22;24074;49.254;6.702;2024-03-02T12:21:35;15.10;79.80
9951;DHT22;24074;49.254;6.702;2024-03-02T12:24:02;15.30;81.10
9951;DHT22;24074;49.254;6.702;2024-03-02T12:26:30;15.10;81.40
9951;DHT22;24074;49.254;6.702;2024-03-02T12:28:57;14.90;81.30
9951;DHT22;24074;49.254;6.702;2024-03-02T12:31:23;15.00;81.80
9951;DHT22;24074;49.254;6.702;2024-03-02T12:33:49;15.20;83.30
9951;DHT22;24074;49.254;6.702;2024-03-02T12:36:14;15.60;84.10
9951;DHT22;24074;49.254;6.702;2024-03-02T12:38:44;15.70;82.90
9951;DHT22;24074;49.254;6.702;2024-03-02T12:41:10;15.80;83.30
9951;DHT22;24074;49.254;6.702;2024-03-02T12:43:35;15.80;81.10
9951;DHT22;24074;49.254;6.702;2024-03-02T12:46:01;15.60;83.60
9951;DHT22;24074;49.254;6.702;2024-03-02T12:48:26;15.20;83.40
9951;DHT22;24074;49.254;6.702;2024-03-02T12:50:52;14.90;86.30
9951;DHT22;24074;49.254;6.702;2024-03-02T12:53:18;14.80;89.30
9951;DHT22;24074;49.254;6.702;2024-03-02T12:55:44;14.60;90.20
9951;DHT22;24074;49.254;6.702;2024-03-02T12:58:20;14.50;90.20
9951;DHT22;24074;49.254;6.702;2024-03-02T13:00:48;14.20;91.70
9951;DHT22;24074;49.254;6.702;2024-03-02T13:03:14;13.90;92.50
9951;DHT22;24074;49.254;6.702;2024-03-02T13:05:48;13.80;93.50
9951;DHT22;24074;49.254;6.702;2024-03-02T13:08:14;13.80;94.70
9951;DHT22;24074;49.254;6.702;2024-03-02T13:10:40;14.10;95.30
9951;DHT22;24074;49.254;6.702;2024-03-02T13:13:06;14.30;94.90
9951;DHT22;24074;49.254;6.702;2024-03-02T13:15:33;14.20;95.30
9951;DHT22;24074;49.254;6.702;2024-03-02T13:17:59;14.10;95.80
9951;DHT22;24074;49.254;6.702;2024-03-02T13:20:31;13.80;96.70
9951;DHT22;24074;49.254;6.702;2024-03-02T13:22:57;13.60;97.90
9951;DHT22;24074;49.254;6.702;2024-03-02T13:25:23;13.60;98.60
9951;DHT22;24074;49.254;6.702;2024-03-02T13:27:48;13.80;99.00
9951;DHT22;24074;49.254;6.702;2024-03-02T13:30:14;13.90;99.90
9951;DHT22;24074;49.254;6.702;2024-03-02T13:32:40;14.00;98.90
9951;DHT22;24074;49.254;6.702;2024-03-02T13:35:05;13.80;98.60
9951;DHT22;24074;49.254;6.702;2024-03-02T13:37:31;13.60;99.60
9951;DHT22;24074;49.254;6.702;2024-03-02T13:39:57;13.60;99.30
9951;DHT22;24074;49.254;6.702;2024-03-02T13:42:22;13.60;99.90
9951;DHT22;24074;49.254;6.702;2024-03-02T13:44:48;13.60;99.90
9951;DHT22;24074;49.254;6.702;2024-03-02T13:47:16;13.50;99.90
9951;DHT22;24074;49.254;6.702;2024-03-02T13:49:42;13.30;99.90
9951;DHT22;24074;49.254;6.702;2024-03-02T13:52:14;13.10;99.90
9951;DHT22;24074;49.254;6.702;2024-03-02T13:54:41;13.10;99.90
9951;DHT22;24074;49.254;6.702;2024-03-02T13:57:08;13.30;99.90
9951;DHT22;24074;49.254;6.702;2024-03-02T13:59:34;13.40;99.90
9951;DHT22;24074;49.254;6.702;2024-03-02T14:02:01;13.20;99.90
9951;DHT22;24074;49.254;6.702;2024-03-02T14:04:27;12.70;99.90
9951;DHT22;24074;49.254;6.702;2024-03-02T14:06:53;12.40;99.90
9951;DHT22;24074;49.254;6.702;2024-03-02T14:09:19;12.30;99.90
9951;DHT22;24074;49.254;6.702;2024-03-02T14:11:46;12.10;99.90
9951;DHT22;24074;49.254;6.702;2024-03-02T14:14:11;12.00;99.90
9951;DHT22;24074;49.254;6.702;2024-03-02T14:16:37;12.10;99.90
9951;DHT22;24074;49.254;6.702;2024-03-02T14:19:02;12.00;99.90
9951;DHT22;24074;49.254;6.702;2024-03-02T14:21:30;12.00;99.90
9951;DHT22;24074;49.254;6.702;2024-03-02T14:23:56;11.90;99.90
9951;DHT22;24074;49.254;6.702;2024-03-02T14:26:21;11.90;99.90
9951;DHT22;24074;49.254;6.702;2024-03-02T14:28:47;11.90;99.90
9951;DHT22;24074;49.254;6.702;2024-03-02T14:31:12;11.90;99.90
9951;DHT22;24074;49.254;6.702;2024-03-02T14:33:38;11.90;99.90
9951;DHT22;24074;49.254;6.702;2024-03-02T14:36:04;11.90;99.90
9951;DHT22;24074;49.254;6.702;2024-03-02T14:38:30;11.80;99.90
9951;DHT22;24074;49.254;6.702;2024-03-02T14:40:56;11.70;99.90
9951;DHT22;24074;49.254;6.702;2024-03-02T14:43:22;11.80;99.90
9951;DHT22;24074;49.254;6.702;2024-03-02T14:45:48;12.00;99.90
9951;DHT22;24074;49.254;6.702;2024-03-02T14:48:13;12.00;99.90
9951;DHT22;24074;49.254;6.702;2024-03-02T14:50:39;12.10;99.90
9951;DHT22;24074;49.254;6.702;2024-03-02T14:53:05;12.10;99.90
9951;DHT22;24074;49.254;6.702;2024-03-02T14:55:33;12.20;99.90
9951;DHT22;24074;49.254;6.702;2024-03-02T14:57:59;12.40;99.90
9951;DHT22;24074;49.254;6.702;2024-03-02T15:00:25;12.40;99.90
9951;DHT22;24074;49.254;6.702;2024-03-02T15:02:51;12.30;99.90
9951;DHT22;24074;49.254;6.702;2024-03-02T15:05:16;12.20;99.90
9951;DHT22;24074;49.254;6.702;2024-03-02T15:07:43;12.10;99.90
9951;DHT22;24074;49.254;6.702;2024-03-02T15:10:09;12.10;99.90
9951;DHT22;24074;49.254;6.702;2024-03-02T15:12:34;11.90;99.90
9951;DHT22;24074;49.254;6.702;2024-03-02T15:15:00;11.90;99.90
9951;DHT22;24074;49.254;6.702;2024-03-02T15:17:26;11.70;99.90
9951;DHT22;24074;49.254;6.702;2024-03-02T15:19:52;11.70;99.90
9951;DHT22;24074;49.254;6.702;2024-03-02T15:22:17;11.60;99.90
9951;DHT22;24074;49.254;6.702;2024-03-02T15:24:43;11.80;99.90
9951;DHT22;24074;49.254;6.702;2024-03-02T15:27:09;11.80;99.90
9951;DHT22;24074;49.254;6.702;2024-03-02T15:29:35;11.90;99.90
9951;DHT22;24074;49.254;6.702;2024-03-02T15:32:01;12.00;99.90
9951;DHT22;24074;49.254;6.702;2024-03-02T15:34:30;12.10;99.90
9951;DHT22;24074;49.254;6.702;2024-03-02T15:36:55;12.20;99.90
9951;DHT22;24074;49.254;6.702;2024-03-02T15:39:21;12.10;99.90
9951;DHT22;24074;49.254;6.702;2024-03-02T15:41:46;12.10;99.90
9951;DHT22;24074;49.254;6.702;2024-03-02T15:44:12;12.00;99.90
9951;DHT22;24074;49.254;6.702;2024-03-02T15:46:38;11.90;99.90
9951;DHT22;24074;49.254;6.702;2024-03-02T15:49:03;11.70;99.90
9951;DHT22;24074;49.254;6.702;2024-03-02T15:51:31;11.50;99.90
9951;DHT22;24074;49.254;6.702;2024-03-02T15:53:58;11.40;99.90
9951;DHT22;24074;49.254;6.702;2024-03-02T15:56:24;11.30;99.90
9951;DHT22;24074;49.254;6.702;2024-03-02T15:58:50;11.20;99.90
9951;DHT22;24074;49.254;6.702;2024-03-02T16:01:15;11.20;99.90
9951;DHT22;24074;49.254;6.702;2024-03-02T16:03:41;11.10;99.90